sensor_id;sensor_type;location;lat;lon;timestamp;pressure;altitude;pressure_sealevel;temperature;humidity
3780;BME280;1905;52.482;9.802;2023-07-29T00:01:59;100228.84;;;20.57;82.01
3780;BME280;1905;52.482;9.802;2023-07-29T00:04:29;100222.78;;;20.55;81.76
3780;BME280;1905;52.482;9.802;2023-07-29T00:06:56;100227.44;;;20.53;82.03
3780;BME280;1905;52.482;9.802;2023-07-29T00:09:24;100223.22;;;20.51;82.14
3780;BME280;1905;52.482;9.802;2023-07-29T00:11:51;100231.38;;;20.49;81.99
3780;BME280;1905;52.482;9.802;2023-07-29T00:14:19;100221.78;;;20.47;82.33
3780;BME280;1905;52.482;9.802;2023-07-29T00:16:47;100225.59;;;20.44;82.14
3780;BME280;1905;52.482;9.802;2023-07-29T00:19:14;100218.69;;;20.42;82.07
3780;BME280;1905;52.482;9.802;2023-07-29T00:21:43;100235.06;;;20.39;82.11
3780;BME280;1905;52.482;9.802;2023-07-29T00:24:11;100233.38;;;20.38;82.41
3780;BME280;1905;52.482;9.802;2023-07-29T00:26:38;100237.91;;;20.37;82.40
3780;BME280;1905;52.482;9.802;2023-07-29T00:29:07;100243.53;;;20.34;82.35
3780;BME280;1905;52.482;9.802;2023-07-29T00:31:35;100240.16;;;20.32;82.89
3780;BME280;1905;52.482;9.802;2023-07-29T00:34:03;100232.38;;;20.29;82.59
3780;BME280;1905;52.482;9.802;2023-07-29T00:36:31;100237.88;;;20.28;82.85
3780;BME280;1905;52.482;9.802;2023-07-29T00:38:59;100239.00;;;20.25;82.52
3780;BME280;1905;52.482;9.802;2023-07-29T00:41:34;100228.50;;;20.22;82.38
3780;BME280;1905;52.482;9.802;2023-07-29T00:44:01;100231.19;;;20.22;81.98
3780;BME280;1905;52.482;9.802;2023-07-29T00:46:54;100222.59;;;20.18;82.86
3780;BME280;1905;52.482;9.802;2023-07-29T00:49:22;100232.47;;;20.18;82.74
3780;BME280;1905;52.482;9.802;2023-07-29T00:51:50;100227.38;;;20.15;82.80
3780;BME280;1905;52.482;9.802;2023-07-29T00:54:19;100223.16;;;20.12;82.71
3780;BME280;1905;52.482;9.802;2023-07-29T00:56:47;100218.91;;;20.10;82.25
3780;BME280;1905;52.482;9.802;2023-07-29T00:59:15;100217.38;;;20.07;82.35
3780;BME280;1905;52.482;9.802;2023-07-29T01:01:42;100215.81;;;20.05;82.52
3780;BME280;1905;52.482;9.802;2023-07-29T01:04:10;100221.44;;;20.02;82.72
3780;BME280;1905;52.482;9.802;2023-07-29T01:06:46;100218.75;;;20.02;82.64
3780;BME280;1905;52.482;9.802;2023-07-29T01:09:41;100213.81;;;19.97;82.83
3780;BME280;1905;52.482;9.802;2023-07-29T01:16:17;100213.19;;;19.84;83.07
3780;BME280;1905;52.482;9.802;2023-07-29T01:18:47;100214.06;;;19.85;83.16
3780;BME280;1905;52.482;9.802;2023-07-29T01:21:17;100208.13;;;19.81;83.28
3780;BME280;1905;52.482;9.802;2023-07-29T01:23:52;100216.31;;;19.80;83.29
3780;BME280;1905;52.482;9.802;2023-07-29T01:26:19;100216.31;;;19.80;83.30
3780;BME280;1905;52.482;9.802;2023-07-29T01:28:47;100211.22;;;19.77;83.40
3780;BME280;1905;52.482;9.802;2023-07-29T01:31:19;100211.38;;;19.75;83.20
3780;BME280;1905;52.482;9.802;2023-07-29T01:33:55;100201.03;;;19.71;83.23
3780;BME280;1905;52.482;9.802;2023-07-29T01:36:27;100204.72;;;19.70;83.66
3780;BME280;1905;52.482;9.802;2023-07-29T01:38:57;100202.03;;;19.70;83.85
3780;BME280;1905;52.482;9.802;2023-07-29T01:41:26;100211.19;;;19.67;83.60
3780;BME280;1905;52.482;9.802;2023-07-29T01:43:56;100206.22;;;19.63;83.45
3780;BME280;1905;52.482;9.802;2023-07-29T01:46:24;100201.88;;;19.62;83.65
3780;BME280;1905;52.482;9.802;2023-07-29T01:48:53;100210.88;;;19.60;83.48
3780;BME280;1905;52.482;9.802;2023-07-29T01:51:21;100206.50;;;19.59;83.06
3780;BME280;1905;52.482;9.802;2023-07-29T01:53:49;100202.41;;;19.55;83.60
3780;BME280;1905;52.482;9.802;2023-07-29T01:56:18;100203.53;;;19.53;83.85
3780;BME280;1905;52.482;9.802;2023-07-29T01:58:53;100207.91;;;19.54;83.90
3780;BME280;1905;52.482;9.802;2023-07-29T02:01:21;100201.72;;;19.53;83.80
3780;BME280;1905;52.482;9.802;2023-07-29T02:03:52;100202.69;;;19.52;83.25
3780;BME280;1905;52.482;9.802;2023-07-29T02:06:22;100200.16;;;19.51;83.75
3780;BME280;1905;52.482;9.802;2023-07-29T02:08:51;100199.31;;;19.50;83.53
3780;BME280;1905;52.482;9.802;2023-07-29T02:11:20;100189.56;;;19.49;83.98
3780;BME280;1905;52.482;9.802;2023-07-29T02:13:54;100182.38;;;19.50;83.37
3780;BME280;1905;52.482;9.802;2023-07-29T02:16:23;100184.06;;;19.51;84.06
3780;BME280;1905;52.482;9.802;2023-07-29T02:18:51;100179.84;;;19.48;83.93
3780;BME280;1905;52.482;9.802;2023-07-29T02:21:21;100186.03;;;19.49;83.87
3780;BME280;1905;52.482;9.802;2023-07-29T02:23:49;100180.81;;;19.47;83.82
3780;BME280;1905;52.482;9.802;2023-07-29T02:26:17;100179.84;;;19.48;83.61
3780;BME280;1905;52.482;9.802;2023-07-29T02:28:47;100187.72;;;19.50;83.67
3780;BME280;1905;52.482;9.802;2023-07-29T02:31:16;100185.19;;;19.48;83.32
3780;BME280;1905;52.482;9.802;2023-07-29T02:33:45;100179.00;;;19.48;83.94
3780;BME280;1905;52.482;9.802;2023-07-29T02:36:14;100173.63;;;19.48;84.05
3780;BME280;1905;52.482;9.802;2023-07-29T02:38:42;100174.19;;;19.51;84.15
3780;BME280;1905;52.482;9.802;2023-07-29T02:41:11;100179.53;;;19.51;84.02
3780;BME280;1905;52.482;9.802;2023-07-29T02:43:39;100182.97;;;19.53;83.76
3780;BME280;1905;52.482;9.802;2023-07-29T02:46:09;100179.53;;;19.51;83.56
3780;BME280;1905;52.482;9.802;2023-07-29T02:48:36;100169.69;;;19.52;83.69
3780;BME280;1905;52.482;9.802;2023-07-29T02:51:04;100174.19;;;19.51;83.78
3780;BME280;1905;52.482;9.802;2023-07-29T02:53:32;100173.38;;;19.51;83.94
3780;BME280;1905;52.482;9.802;2023-07-29T02:55:59;100179.53;;;19.51;84.05
3780;BME280;1905;52.482;9.802;2023-07-29T02:58:27;100172.25;;;19.53;83.30
3780;BME280;1905;52.482;9.802;2023-07-29T03:01:00;100167.16;;;19.50;83.79
3780;BME280;1905;52.482;9.802;2023-07-29T03:03:29;100171.66;;;19.50;83.60
3780;BME280;1905;52.482;9.802;2023-07-29T03:05:59;100169.81;;;19.50;83.65
3780;BME280;1905;52.482;9.802;2023-07-29T03:08:28;100166.28;;;19.50;83.49
3780;BME280;1905;52.482;9.802;2023-07-29T03:10:56;100172.50;;;19.50;83.62
3780;BME280;1905;52.482;9.802;2023-07-29T03:13:24;100182.38;;;19.50;83.26
3780;BME280;1905;52.482;9.802;2023-07-29T03:15:52;100190.25;;;19.51;83.31
3780;BME280;1905;52.482;9.802;2023-07-29T03:18:19;100177.88;;;19.50;83.36
3780;BME280;1905;52.482;9.802;2023-07-29T03:20:50;100181.50;;;19.49;83.45
3780;BME280;1905;52.482;9.802;2023-07-29T03:23:17;100176.16;;;19.49;83.47
3780;BME280;1905;52.482;9.802;2023-07-29T03:25:48;100178.13;;;19.47;83.67
3780;BME280;1905;52.482;9.802;2023-07-29T03:28:17;100183.50;;;19.47;83.79
3780;BME280;1905;52.482;9.802;2023-07-29T03:30:44;100179.09;;;19.46;83.71
3780;BME280;1905;52.482;9.802;2023-07-29T03:33:12;100186.03;;;19.49;83.54
3780;BME280;1905;52.482;9.802;2023-07-29T03:35:40;100171.66;;;19.50;83.52
3780;BME280;1905;52.482;9.802;2023-07-29T03:38:12;100176.16;;;19.49;83.77
3780;BME280;1905;52.482;9.802;2023-07-29T03:40:40;100174.19;;;19.51;83.90
3780;BME280;1905;52.482;9.802;2023-07-29T03:43:08;100168.28;;;19.48;84.05
3780;BME280;1905;52.482;9.802;2023-07-29T03:45:36;100162.91;;;19.48;84.04
3780;BME280;1905;52.482;9.802;2023-07-29T03:48:04;100165.44;;;19.49;83.69
3780;BME280;1905;52.482;9.802;2023-07-29T03:50:34;100149.38;;;19.49;83.83
3780;BME280;1905;52.482;9.802;2023-07-29T03:53:02;100160.78;;;19.51;83.50
3780;BME280;1905;52.482;9.802;2023-07-29T03:55:32;100170.53;;;19.52;83.61
3780;BME280;1905;52.482;9.802;2023-07-29T03:58:00;100173.38;;;19.51;83.54
3780;BME280;1905;52.482;9.802;2023-07-29T04:00:28;100175.03;;;19.52;83.57
3780;BME280;1905;52.482;9.802;2023-07-29T04:02:56;100174.19;;;19.51;83.70
3780;BME280;1905;52.482;9.802;2023-07-29T04:05:24;100169.81;;;19.50;83.64
3780;BME280;1905;52.482;9.802;2023-07-29T04:07:52;100160.66;;;19.53;83.88
3780;BME280;1905;52.482;9.802;2023-07-29T04:10:20;100151.66;;;19.54;83.55
3780;BME280;1905;52.482;9.802;2023-07-29T04:12:49;100158.69;;;19.55;83.46
3780;BME280;1905;52.482;9.802;2023-07-29T04:15:17;100159.53;;;19.55;83.66
3780;BME280;1905;52.482;9.802;2023-07-29T04:17:45;100154.19;;;19.55;83.75
3780;BME280;1905;52.482;9.802;2023-07-29T04:20:12;100156.72;;;19.57;83.89
3780;BME280;1905;52.482;9.802;2023-07-29T04:22:40;100152.22;;;19.57;84.09
3780;BME280;1905;52.482;9.802;2023-07-29T04:25:08;100149.53;;;19.57;83.77
3780;BME280;1905;52.482;9.802;2023-07-29T04:27:36;100143.19;;;19.58;83.51
3780;BME280;1905;52.482;9.802;2023-07-29T04:30:07;100144.88;;;19.59;83.52
3780;BME280;1905;52.482;9.802;2023-07-29T04:32:35;100141.22;;;19.60;83.67
3780;BME280;1905;52.482;9.802;2023-07-29T04:35:07;100135.88;;;19.60;83.67
3780;BME280;1905;52.482;9.802;2023-07-29T04:37:36;100138.44;;;19.62;83.37
3780;BME280;1905;52.482;9.802;2023-07-29T04:40:05;100128.53;;;19.63;83.54
3780;BME280;1905;52.482;9.802;2023-07-29T04:42:33;100133.63;;;19.66;83.37
3780;BME280;1905;52.482;9.802;2023-07-29T04:45:01;100129.97;;;19.67;82.95
3780;BME280;1905;52.482;9.802;2023-07-29T04:47:33;100128.13;;;19.67;83.26
3780;BME280;1905;52.482;9.802;2023-07-29T04:50:00;100134.31;;;19.68;82.96
3780;BME280;1905;52.482;9.802;2023-07-29T04:52:29;100142.34;;;19.68;83.40
3780;BME280;1905;52.482;9.802;2023-07-29T04:54:56;100145.78;;;19.70;83.36
3780;BME280;1905;52.482;9.802;2023-07-29T04:57:25;100144.06;;;19.69;82.83
3780;BME280;1905;52.482;9.802;2023-07-29T04:59:54;100147.44;;;19.71;83.11
3780;BME280;1905;52.482;9.802;2023-07-29T05:02:22;100149.16;;;19.72;82.89
3780;BME280;1905;52.482;9.802;2023-07-29T05:04:51;100154.50;;;19.72;82.73
3780;BME280;1905;52.482;9.802;2023-07-29T05:07:18;100167.75;;;19.73;83.04
3780;BME280;1905;52.482;9.802;2023-07-29T05:09:47;100159.59;;;19.75;83.17
3780;BME280;1905;52.482;9.802;2023-07-29T05:12:15;100153.25;;;19.76;83.60
3780;BME280;1905;52.482;9.802;2023-07-29T05:14:43;100143.25;;;19.78;83.63
3780;BME280;1905;52.482;9.802;2023-07-29T05:17:11;100128.84;;;19.79;83.67
3780;BME280;1905;52.482;9.802;2023-07-29T05:19:39;100132.38;;;19.79;84.47
3780;BME280;1905;52.482;9.802;2023-07-29T05:22:08;100127.72;;;19.81;83.92
3780;BME280;1905;52.482;9.802;2023-07-29T05:24:36;100128.56;;;19.82;83.60
3780;BME280;1905;52.482;9.802;2023-07-29T05:27:04;100130.13;;;19.84;83.51
3780;BME280;1905;52.482;9.802;2023-07-29T05:29:33;100132.66;;;19.86;83.01
3780;BME280;1905;52.482;9.802;2023-07-29T05:32:01;100128.00;;;19.88;83.18
3780;BME280;1905;52.482;9.802;2023-07-29T05:34:29;100117.00;;;19.91;83.42
3780;BME280;1905;52.482;9.802;2023-07-29T05:36:57;100120.41;;;19.93;83.25
3780;BME280;1905;52.482;9.802;2023-07-29T05:39:26;100124.78;;;19.94;83.17
3780;BME280;1905;52.482;9.802;2023-07-29T05:41:54;100121.09;;;19.95;84.24
3780;BME280;1905;52.482;9.802;2023-07-29T05:44:22;100119.25;;;19.95;83.99
3780;BME280;1905;52.482;9.802;2023-07-29T05:46:50;100112.78;;;19.98;84.08
3780;BME280;1905;52.482;9.802;2023-07-29T05:49:18;100117.00;;;20.00;83.78
3780;BME280;1905;52.482;9.802;2023-07-29T05:51:45;100112.38;;;20.02;83.53
3780;BME280;1905;52.482;9.802;2023-07-29T05:54:13;100115.75;;;20.04;83.25
3780;BME280;1905;52.482;9.802;2023-07-29T05:56:42;100109.25;;;20.07;83.53
3780;BME280;1905;52.482;9.802;2023-07-29T05:59:10;100104.59;;;20.09;82.92
3780;BME280;1905;52.482;9.802;2023-07-29T06:01:38;100101.63;;;20.12;83.84
3780;BME280;1905;52.482;9.802;2023-07-29T06:04:06;100103.06;;;20.16;84.22
3780;BME280;1905;52.482;9.802;2023-07-29T06:06:34;100100.22;;;20.17;83.81
3780;BME280;1905;52.482;9.802;2023-07-29T06:09:03;100117.56;;;20.23;83.18
3780;BME280;1905;52.482;9.802;2023-07-29T06:11:31;100119.84;;;20.28;83.01
3780;BME280;1905;52.482;9.802;2023-07-29T06:14:00;100138.50;;;20.29;83.19
3780;BME280;1905;52.482;9.802;2023-07-29T06:16:28;100142.56;;;20.33;84.38
3780;BME280;1905;52.482;9.802;2023-07-29T06:18:56;100139.91;;;20.33;83.68
3780;BME280;1905;52.482;9.802;2023-07-29T06:21:24;100130.59;;;20.37;83.27
3780;BME280;1905;52.482;9.802;2023-07-29T06:23:52;100128.59;;;20.39;84.19
3780;BME280;1905;52.482;9.802;2023-07-29T06:26:20;100109.38;;;20.44;83.64
3780;BME280;1905;52.482;9.802;2023-07-29T06:28:48;100100.53;;;20.43;83.99
3780;BME280;1905;52.482;9.802;2023-07-29T06:31:17;100107.56;;;20.44;83.67
3780;BME280;1905;52.482;9.802;2023-07-29T06:33:45;100112.78;;;20.46;83.53
3780;BME280;1905;52.482;9.802;2023-07-29T06:36:13;100118.00;;;20.47;83.10
3780;BME280;1905;52.482;9.802;2023-07-29T06:38:41;100124.06;;;20.49;82.96
3780;BME280;1905;52.482;9.802;2023-07-29T06:41:08;100125.94;;;20.49;82.80
3780;BME280;1905;52.482;9.802;2023-07-29T06:43:40;100128.31;;;20.52;83.71
3780;BME280;1905;52.482;9.802;2023-07-29T06:46:08;100131.13;;;20.50;83.61
3780;BME280;1905;52.482;9.802;2023-07-29T06:48:38;100136.22;;;20.53;83.87
3780;BME280;1905;52.482;9.802;2023-07-29T06:51:06;100135.09;;;20.56;84.12
3780;BME280;1905;52.482;9.802;2023-07-29T06:53:33;100133.94;;;20.58;84.29
3780;BME280;1905;52.482;9.802;2023-07-29T06:56:01;100141.00;;;20.59;84.04
3780;BME280;1905;52.482;9.802;2023-07-29T06:58:30;100137.31;;;20.60;85.08
3780;BME280;1905;52.482;9.802;2023-07-29T07:00:58;100132.53;;;20.64;84.77
3780;BME280;1905;52.482;9.802;2023-07-29T07:03:26;100137.31;;;20.70;84.07
3780;BME280;1905;52.482;9.802;2023-07-29T07:05:55;100142.53;;;20.71;85.47
3780;BME280;1905;52.482;9.802;2023-07-29T07:16:22;100132.44;;;20.93;86.01
3780;BME280;1905;52.482;9.802;2023-07-29T07:18:50;100134.69;;;20.97;85.76
3780;BME280;1905;52.482;9.802;2023-07-29T07:21:19;100137.38;;;21.07;84.65
3780;BME280;1905;52.482;9.802;2023-07-29T07:23:46;100138.50;;;21.14;85.33
3780;BME280;1905;52.482;9.802;2023-07-29T07:26:16;100129.53;;;21.23;84.02
3780;BME280;1905;52.482;9.802;2023-07-29T07:28:44;100124.41;;;21.29;84.05
3780;BME280;1905;52.482;9.802;2023-07-29T07:31:11;100120.13;;;21.36;84.05
3780;BME280;1905;52.482;9.802;2023-07-29T07:33:39;100125.19;;;21.40;84.55
3780;BME280;1905;52.482;9.802;2023-07-29T07:36:07;100122.31;;;21.51;82.85
3780;BME280;1905;52.482;9.802;2023-07-29T07:38:35;100119.03;;;21.57;83.00
3780;BME280;1905;52.482;9.802;2023-07-29T07:41:03;100130.72;;;21.65;82.87
3780;BME280;1905;52.482;9.802;2023-07-29T07:43:31;100137.47;;;21.69;82.18
3780;BME280;1905;52.482;9.802;2023-07-29T07:46:00;100133.50;;;21.73;82.24
3780;BME280;1905;52.482;9.802;2023-07-29T07:48:28;100131.19;;;21.78;81.59
3780;BME280;1905;52.482;9.802;2023-07-29T07:50:56;100123.81;;;21.80;82.17
3780;BME280;1905;52.482;9.802;2023-07-29T07:53:24;100117.00;;;21.86;81.85
3780;BME280;1905;52.482;9.802;2023-07-29T07:55:54;100129.19;;;21.90;81.81
3780;BME280;1905;52.482;9.802;2023-07-29T07:58:22;100115.56;;;21.91;82.75
3780;BME280;1905;52.482;9.802;2023-07-29T08:00:50;100102.50;;;21.97;81.34
3780;BME280;1905;52.482;9.802;2023-07-29T08:03:17;100099.88;;;22.05;81.97
3780;BME280;1905;52.482;9.802;2023-07-29T08:05:45;100095.91;;;22.09;82.08
3780;BME280;1905;52.482;9.802;2023-07-29T08:08:13;100093.75;;;22.12;81.63
3780;BME280;1905;52.482;9.802;2023-07-29T08:14:42;100112.88;;;22.27;81.56
3780;BME280;1905;52.482;9.802;2023-07-29T08:17:10;100112.38;;;22.31;82.27
3780;BME280;1905;52.482;9.802;2023-07-29T08:19:37;100112.31;;;22.41;81.80
3780;BME280;1905;52.482;9.802;2023-07-29T08:22:05;100110.66;;;22.48;81.06
3780;BME280;1905;52.482;9.802;2023-07-29T08:24:33;100112.75;;;22.54;81.09
3780;BME280;1905;52.482;9.802;2023-07-29T08:27:02;100116.34;;;22.63;80.78
3780;BME280;1905;52.482;9.802;2023-07-29T08:29:30;100118.59;;;22.67;80.75
3780;BME280;1905;52.482;9.802;2023-07-29T08:31:59;100114.28;;;22.74;80.58
3780;BME280;1905;52.482;9.802;2023-07-29T08:34:28;100112.63;;;22.81;80.32
3780;BME280;1905;52.482;9.802;2023-07-29T08:36:55;100112.66;;;22.89;80.11
3780;BME280;1905;52.482;9.802;2023-07-29T08:39:23;100118.41;;;22.94;80.05
3780;BME280;1905;52.482;9.802;2023-07-29T08:41:56;100119.13;;;22.96;80.24
3780;BME280;1905;52.482;9.802;2023-07-29T08:44:26;100117.47;;;23.03;79.84
3780;BME280;1905;52.482;9.802;2023-07-29T08:46:59;100117.63;;;23.02;79.94
3780;BME280;1905;52.482;9.802;2023-07-29T08:49:29;100122.38;;;23.08;79.37
3780;BME280;1905;52.482;9.802;2023-07-29T08:52:01;100113.66;;;23.14;79.17
3780;BME280;1905;52.482;9.802;2023-07-29T08:54:30;100109.47;;;23.20;79.30
3780;BME280;1905;52.482;9.802;2023-07-29T08:56:59;100086.91;;;23.21;79.35
3780;BME280;1905;52.482;9.802;2023-07-29T08:59:30;100094.69;;;23.24;79.11
3780;BME280;1905;52.482;9.802;2023-07-29T09:02:00;100102.75;;;23.24;79.07
3780;BME280;1905;52.482;9.802;2023-07-29T09:04:29;100100.06;;;23.24;78.93
3780;BME280;1905;52.482;9.802;2023-07-29T09:06:58;100107.44;;;23.22;79.21
3780;BME280;1905;52.482;9.802;2023-07-29T09:09:26;100108.31;;;23.22;79.33
3780;BME280;1905;52.482;9.802;2023-07-29T09:11:54;100103.75;;;23.23;79.11
3780;BME280;1905;52.482;9.802;2023-07-29T09:14:23;100100.06;;;23.24;79.29
3780;BME280;1905;52.482;9.802;2023-07-29T09:16:51;100099.03;;;23.25;79.51
3780;BME280;1905;52.482;9.802;2023-07-29T09:19:21;100098.91;;;23.26;79.36
3780;BME280;1905;52.482;9.802;2023-07-29T09:21:49;100092.34;;;23.29;79.01
3780;BME280;1905;52.482;9.802;2023-07-29T09:24:17;100088.63;;;23.30;79.35
3780;BME280;1905;52.482;9.802;2023-07-29T09:26:49;100093.00;;;23.31;80.42
3780;BME280;1905;52.482;9.802;2023-07-29T09:29:22;100083.28;;;23.38;79.25
3780;BME280;1905;52.482;9.802;2023-07-29T09:31:50;100081.63;;;23.45;79.49
3780;BME280;1905;52.482;9.802;2023-07-29T09:34:17;100075.94;;;23.48;79.30
3780;BME280;1905;52.482;9.802;2023-07-29T09:36:50;100083.19;;;23.55;79.07
3780;BME280;1905;52.482;9.802;2023-07-29T09:39:20;100078.81;;;23.62;79.43
3780;BME280;1905;52.482;9.802;2023-07-29T09:41:51;100086.06;;;23.70;78.86
3780;BME280;1905;52.482;9.802;2023-07-29T09:44:18;100084.72;;;23.66;79.02
3780;BME280;1905;52.482;9.802;2023-07-29T09:46:47;100072.09;;;23.75;79.01
3780;BME280;1905;52.482;9.802;2023-07-29T09:49:15;100066.06;;;23.81;78.65
3780;BME280;1905;52.482;9.802;2023-07-29T09:51:43;100061.16;;;23.92;78.38
3780;BME280;1905;52.482;9.802;2023-07-29T09:54:12;100056.47;;;24.02;78.61
3780;BME280;1905;52.482;9.802;2023-07-29T09:56:42;100067.09;;;24.12;78.06
3780;BME280;1905;52.482;9.802;2023-07-29T09:59:11;100073.69;;;24.17;77.71
3780;BME280;1905;52.482;9.802;2023-07-29T10:01:39;100072.34;;;24.21;77.93
3780;BME280;1905;52.482;9.802;2023-07-29T10:04:08;100065.59;;;24.25;77.80
3780;BME280;1905;52.482;9.802;2023-07-29T10:06:40;100066.78;;;24.23;77.82
3780;BME280;1905;52.482;9.802;2023-07-29T10:09:12;100064.59;;;24.18;77.79
3780;BME280;1905;52.482;9.802;2023-07-29T10:11:41;100070.31;;;24.23;77.61
3780;BME280;1905;52.482;9.802;2023-07-29T10:14:09;100067.28;;;24.26;77.39
3780;BME280;1905;52.482;9.802;2023-07-29T10:16:39;100071.66;;;24.27;77.26
3780;BME280;1905;52.482;9.802;2023-07-29T10:19:09;100071.50;;;24.29;77.35
3780;BME280;1905;52.482;9.802;2023-07-29T10:21:38;100067.63;;;24.23;77.26
3780;BME280;1905;52.482;9.802;2023-07-29T10:24:09;100069.66;;;24.21;77.20
3780;BME280;1905;52.482;9.802;2023-07-29T10:26:45;100062.88;;;24.17;77.08
3780;BME280;1905;52.482;9.802;2023-07-29T10:29:17;100070.31;;;24.15;77.38
3780;BME280;1905;52.482;9.802;2023-07-29T10:31:47;100069.59;;;24.05;77.00
3780;BME280;1905;52.482;9.802;2023-07-29T10:34:15;100066.75;;;24.07;77.44
3780;BME280;1905;52.482;9.802;2023-07-29T10:36:45;100065.38;;;24.03;77.28
3780;BME280;1905;52.482;9.802;2023-07-29T10:39:14;100066.22;;;23.87;76.80
3780;BME280;1905;52.482;9.802;2023-07-29T10:41:56;100066.53;;;23.84;77.33
3780;BME280;1905;52.482;9.802;2023-07-29T10:44:47;100067.72;;;23.74;77.70
3780;BME280;1905;52.482;9.802;2023-07-29T10:47:18;100072.59;;;23.78;77.46
3780;BME280;1905;52.482;9.802;2023-07-29T10:49:47;100072.94;;;23.75;77.41
3780;BME280;1905;52.482;9.802;2023-07-29T10:52:16;100079.69;;;23.79;77.57
3780;BME280;1905;52.482;9.802;2023-07-29T10:54:55;100076.47;;;23.67;76.82
3780;BME280;1905;52.482;9.802;2023-07-29T10:57:33;100070.25;;;23.67;77.07
3780;BME280;1905;52.482;9.802;2023-07-29T11:00:04;100076.94;;;23.55;76.54
3780;BME280;1905;52.482;9.802;2023-07-29T11:02:35;100076.94;;;23.55;77.02
3780;BME280;1905;52.482;9.802;2023-07-29T11:05:05;100080.16;;;23.50;77.11
3780;BME280;1905;52.482;9.802;2023-07-29T11:07:43;100066.69;;;23.58;77.37
3780;BME280;1905;52.482;9.802;2023-07-29T11:10:12;100072.94;;;23.59;77.39
3780;BME280;1905;52.482;9.802;2023-07-29T11:12:44;100070.19;;;23.51;77.73
3780;BME280;1905;52.482;9.802;2023-07-29T11:15:19;100073.91;;;23.50;77.34
3780;BME280;1905;52.482;9.802;2023-07-29T11:17:49;100071.88;;;23.52;76.65
3780;BME280;1905;52.482;9.802;2023-07-29T11:20:18;100073.22;;;23.48;77.04
3780;BME280;1905;52.482;9.802;2023-07-29T11:22:48;100076.91;;;23.47;76.36
3780;BME280;1905;52.482;9.802;2023-07-29T11:25:18;100069.81;;;23.46;75.66
3780;BME280;1905;52.482;9.802;2023-07-29T11:27:47;100055.84;;;23.42;75.76
3780;BME280;1905;52.482;9.802;2023-07-29T11:30:15;100064.09;;;23.41;77.77
3780;BME280;1905;52.482;9.802;2023-07-29T11:32:44;100069.16;;;23.44;76.54
3780;BME280;1905;52.482;9.802;2023-07-29T11:35:14;100070.16;;;23.43;76.08
3780;BME280;1905;52.482;9.802;2023-07-29T11:37:44;100066.13;;;23.39;74.82
3780;BME280;1905;52.482;9.802;2023-07-29T11:40:14;100065.94;;;23.40;75.04
3780;BME280;1905;52.482;9.802;2023-07-29T11:42:42;100077.25;;;23.44;75.58
3780;BME280;1905;52.482;9.802;2023-07-29T11:45:13;100074.88;;;23.41;74.03
3780;BME280;1905;52.482;9.802;2023-07-29T11:47:44;100073.22;;;23.40;73.33
3780;BME280;1905;52.482;9.802;2023-07-29T11:50:13;100073.22;;;23.40;73.37
3780;BME280;1905;52.482;9.802;2023-07-29T11:52:43;100081.22;;;23.32;74.08
3780;BME280;1905;52.482;9.802;2023-07-29T11:55:12;100094.22;;;23.36;71.99
3780;BME280;1905;52.482;9.802;2023-07-29T11:57:41;100093.38;;;23.36;71.12
3780;BME280;1905;52.482;9.802;2023-07-29T12:00:11;100091.16;;;23.31;68.42
3780;BME280;1905;52.482;9.802;2023-07-29T12:02:44;100096.44;;;23.41;70.91
3780;BME280;1905;52.482;9.802;2023-07-29T12:05:14;100108.69;;;23.35;69.34
3780;BME280;1905;52.482;9.802;2023-07-29T12:07:43;100102.44;;;23.35;67.08
3780;BME280;1905;52.482;9.802;2023-07-29T12:10:12;100098.22;;;23.32;69.51
3780;BME280;1905;52.482;9.802;2023-07-29T12:12:44;100106.16;;;23.34;70.70
3780;BME280;1905;52.482;9.802;2023-07-29T12:15:22;100107.00;;;23.34;70.77
3780;BME280;1905;52.482;9.802;2023-07-29T12:17:53;100111.56;;;23.34;70.32
3780;BME280;1905;52.482;9.802;2023-07-29T12:20:24;100113.22;;;23.35;69.74
3780;BME280;1905;52.482;9.802;2023-07-29T12:22:53;100111.94;;;23.39;70.63
3780;BME280;1905;52.482;9.802;2023-07-29T12:25:21;100104.38;;;23.42;70.25
3780;BME280;1905;52.482;9.802;2023-07-29T12:27:49;100111.97;;;23.47;70.87
3780;BME280;1905;52.482;9.802;2023-07-29T12:30:21;100109.31;;;23.55;69.84
3780;BME280;1905;52.482;9.802;2023-07-29T12:32:49;100115.72;;;23.62;70.84
3780;BME280;1905;52.482;9.802;2023-07-29T12:35:18;100104.09;;;23.61;71.85
3780;BME280;1905;52.482;9.802;2023-07-29T12:37:46;100109.34;;;23.71;70.11
3780;BME280;1905;52.482;9.802;2023-07-29T12:40:23;100111.38;;;23.77;68.20
3780;BME280;1905;52.482;9.802;2023-07-29T12:42:51;100112.06;;;23.79;69.66
3780;BME280;1905;52.482;9.802;2023-07-29T12:45:21;100104.63;;;23.81;69.62
3780;BME280;1905;52.482;9.802;2023-07-29T12:47:53;100098.25;;;23.90;70.01
3780;BME280;1905;52.482;9.802;2023-07-29T12:50:21;100099.63;;;24.02;70.93
3780;BME280;1905;52.482;9.802;2023-07-29T12:52:49;100092.56;;;24.09;69.23
3780;BME280;1905;52.482;9.802;2023-07-29T12:55:17;100095.59;;;24.14;70.09
3780;BME280;1905;52.482;9.802;2023-07-29T12:57:49;100094.63;;;24.23;66.83
3780;BME280;1905;52.482;9.802;2023-07-29T13:00:18;100091.06;;;24.31;68.21
3780;BME280;1905;52.482;9.802;2023-07-29T13:02:47;100093.56;;;24.33;66.81
3780;BME280;1905;52.482;9.802;2023-07-29T13:05:14;100087.50;;;24.39;64.87
3780;BME280;1905;52.482;9.802;2023-07-29T13:07:43;100088.88;;;24.43;67.28
3780;BME280;1905;52.482;9.802;2023-07-29T13:10:11;100092.41;;;24.51;66.47
3780;BME280;1905;52.482;9.802;2023-07-29T13:12:39;100092.88;;;24.55;65.54
3780;BME280;1905;52.482;9.802;2023-07-29T13:15:07;100094.59;;;24.56;62.36
3780;BME280;1905;52.482;9.802;2023-07-29T13:17:35;100093.19;;;24.68;67.38
3780;BME280;1905;52.482;9.802;2023-07-29T13:20:07;100091.03;;;24.63;65.58
3780;BME280;1905;52.482;9.802;2023-07-29T13:22:35;100088.16;;;24.65;64.35
3780;BME280;1905;52.482;9.802;2023-07-29T13:25:04;100090.00;;;24.72;64.13
3780;BME280;1905;52.482;9.802;2023-07-29T13:27:31;100096.25;;;24.73;64.62
3780;BME280;1905;52.482;9.802;2023-07-29T13:29:59;100098.13;;;24.80;65.51
3780;BME280;1905;52.482;9.802;2023-07-29T13:32:27;100098.25;;;24.87;65.55
3780;BME280;1905;52.482;9.802;2023-07-29T13:34:56;100095.22;;;24.90;63.49
3780;BME280;1905;52.482;9.802;2023-07-29T13:37:25;100095.22;;;24.90;61.47